SPHO/AYP METAR and TAF weather

Enter ICAO airport designator
Station Type Date Time Source
SPHO METAR 2022/06/27 23:00 UTC NOAA

SPHO 272300Z 35003KT CAVOK 20/M02 Q1024 RMK PP000


Station Type Date Time Source
SPHO Decoded METAR 2022/06/27 23:00 UTC NOAA

Ayacucho, Peru (SPHO) 13-08S 074-13W 2749M
Jun 27, 2022 - 07:00 PM EDT / 2022.06.27 2300 UTC
Wind: from the N (350 degrees) at 3 MPH (3 KT):0
Visibility: greater than 7 mile(s):0
Temperature: 68 F (20 C)
Dew Point: 28 F (-2 C)
Relative Humidity: 22%
Pressure (altimeter): 30.24 in. Hg (1024 hPa)
ob: SPHO 272300Z 35003KT CAVOK 20/M02 Q1024 RMK PP000
cycle: 23

Station Type Date Time Source
SPHO TAF 2022/06/27 18:33 UTC NOAA

TAF SPHO 271720Z 2718/2818 07005KT 9999 SCT040 TX22/2719Z TN08/2811Z

Example: see airport list